sensor_id;sensor_type;location;lat;lon;timestamp;P1;durP1;ratioP1;P2;durP2;ratioP2
59390;SDS011;53405;57.012;40.984;2024-03-02T00:00:32;53.53;;;24.00;;
59390;SDS011;53405;57.012;40.984;2024-03-02T00:03:00;46.30;;;21.70;;
59390;SDS011;53405;57.012;40.984;2024-03-02T00:05:28;47.40;;;21.35;;
59390;SDS011;53405;57.012;40.984;2024-03-02T00:07:58;43.80;;;21.27;;
59390;SDS011;53405;57.012;40.984;2024-03-02T00:10:28;41.33;;;20.70;;
59390;SDS011;53405;57.012;40.984;2024-03-02T00:13:04;41.25;;;21.38;;
59390;SDS011;53405;57.012;40.984;2024-03-02T00:15:41;40.70;;;20.52;;
59390;SDS011;53405;57.012;40.984;2024-03-02T00:18:12;40.08;;;21.52;;
59390;SDS011;53405;57.012;40.984;2024-03-02T00:23:10;38.78;;;20.42;;
59390;SDS011;53405;57.012;40.984;2024-03-02T00:25:46;39.75;;;21.10;;
59390;SDS011;53405;57.012;40.984;2024-03-02T00:33:42;37.75;;;20.33;;
59390;SDS011;53405;57.012;40.984;2024-03-02T00:36:16;38.50;;;20.35;;
59390;SDS011;53405;57.012;40.984;2024-03-02T00:38:50;33.88;;;19.15;;
59390;SDS011;53405;57.012;40.984;2024-03-02T00:41:29;36.08;;;19.48;;
59390;SDS011;53405;57.012;40.984;2024-03-02T00:44:06;34.78;;;19.30;;
59390;SDS011;53405;57.012;40.984;2024-03-02T00:46:36;33.72;;;18.80;;
59390;SDS011;53405;57.012;40.984;2024-03-02T00:49:05;38.08;;;19.52;;
59390;SDS011;53405;57.012;40.984;2024-03-02T00:51:38;37.28;;;19.42;;
59390;SDS011;53405;57.012;40.984;2024-03-02T00:54:07;35.75;;;20.08;;
59390;SDS011;53405;57.012;40.984;2024-03-02T00:59:03;34.05;;;18.23;;
59390;SDS011;53405;57.012;40.984;2024-03-02T01:01:31;32.33;;;17.67;;
59390;SDS011;53405;57.012;40.984;2024-03-02T01:03:58;30.42;;;18.70;;
59390;SDS011;53405;57.012;40.984;2024-03-02T01:06:26;32.30;;;19.10;;
59390;SDS011;53405;57.012;40.984;2024-03-02T01:08:53;31.67;;;18.27;;
59390;SDS011;53405;57.012;40.984;2024-03-02T01:11:21;36.45;;;19.33;;
59390;SDS011;53405;57.012;40.984;2024-03-02T01:13:50;33.38;;;19.85;;
59390;SDS011;53405;57.012;40.984;2024-03-02T01:16:19;32.65;;;19.40;;
59390;SDS011;53405;57.012;40.984;2024-03-02T01:18:47;30.83;;;18.95;;
59390;SDS011;53405;57.012;40.984;2024-03-02T01:21:16;34.83;;;19.38;;
59390;SDS011;53405;57.012;40.984;2024-03-02T01:23:43;31.27;;;19.45;;
59390;SDS011;53405;57.012;40.984;2024-03-02T01:26:11;33.92;;;19.85;;
59390;SDS011;53405;57.012;40.984;2024-03-02T01:28:38;34.53;;;20.20;;
59390;SDS011;53405;57.012;40.984;2024-03-02T01:31:06;32.47;;;19.55;;
59390;SDS011;53405;57.012;40.984;2024-03-02T01:33:33;32.63;;;20.15;;
59390;SDS011;53405;57.012;40.984;2024-03-02T01:36:01;33.13;;;19.45;;
59390;SDS011;53405;57.012;40.984;2024-03-02T01:38:28;29.08;;;18.42;;
59390;SDS011;53405;57.012;40.984;2024-03-02T01:40:56;31.67;;;18.77;;
59390;SDS011;53405;57.012;40.984;2024-03-02T01:43:24;35.20;;;18.63;;
59390;SDS011;53405;57.012;40.984;2024-03-02T01:45:51;32.53;;;18.85;;
59390;SDS011;53405;57.012;40.984;2024-03-02T01:48:20;30.70;;;19.10;;
59390;SDS011;53405;57.012;40.984;2024-03-02T01:50:48;33.25;;;19.13;;
59390;SDS011;53405;57.012;40.984;2024-03-02T01:53:15;28.00;;;18.23;;
59390;SDS011;53405;57.012;40.984;2024-03-02T01:55:43;29.98;;;17.15;;
59390;SDS011;53405;57.012;40.984;2024-03-02T01:58:11;28.02;;;18.10;;
59390;SDS011;53405;57.012;40.984;2024-03-02T02:00:38;27.92;;;16.90;;
59390;SDS011;53405;57.012;40.984;2024-03-02T02:03:06;32.00;;;19.27;;
59390;SDS011;53405;57.012;40.984;2024-03-02T02:05:34;30.17;;;18.55;;
59390;SDS011;53405;57.012;40.984;2024-03-02T02:08:02;27.48;;;18.52;;
59390;SDS011;53405;57.012;40.984;2024-03-02T02:10:30;27.27;;;18.08;;
59390;SDS011;53405;57.012;40.984;2024-03-02T02:12:57;29.67;;;19.00;;
59390;SDS011;53405;57.012;40.984;2024-03-02T02:17:57;24.80;;;17.08;;
59390;SDS011;53405;57.012;40.984;2024-03-02T02:20:46;26.33;;;16.50;;
59390;SDS011;53405;57.012;40.984;2024-03-02T02:23:14;23.48;;;15.35;;
59390;SDS011;53405;57.012;40.984;2024-03-02T02:25:41;23.50;;;15.43;;
59390;SDS011;53405;57.012;40.984;2024-03-02T02:28:09;24.73;;;15.82;;
59390;SDS011;53405;57.012;40.984;2024-03-02T02:30:37;24.63;;;15.32;;
59390;SDS011;53405;57.012;40.984;2024-03-02T02:33:04;25.92;;;14.95;;
59390;SDS011;53405;57.012;40.984;2024-03-02T02:35:31;23.10;;;15.77;;
59390;SDS011;53405;57.012;40.984;2024-03-02T02:37:59;23.08;;;14.82;;
59390;SDS011;53405;57.012;40.984;2024-03-02T02:40:27;22.92;;;14.85;;
59390;SDS011;53405;57.012;40.984;2024-03-02T02:42:58;22.63;;;15.18;;
59390;SDS011;53405;57.012;40.984;2024-03-02T02:45:26;22.13;;;15.00;;
59390;SDS011;53405;57.012;40.984;2024-03-02T02:47:54;26.25;;;17.63;;
59390;SDS011;53405;57.012;40.984;2024-03-02T02:50:21;24.52;;;16.67;;
59390;SDS011;53405;57.012;40.984;2024-03-02T02:52:49;23.73;;;15.50;;
59390;SDS011;53405;57.012;40.984;2024-03-02T02:55:17;23.75;;;14.90;;
59390;SDS011;53405;57.012;40.984;2024-03-02T02:57:45;21.67;;;14.95;;
59390;SDS011;53405;57.012;40.984;2024-03-02T03:00:14;23.92;;;14.52;;
59390;SDS011;53405;57.012;40.984;2024-03-02T03:02:45;22.80;;;14.80;;
59390;SDS011;53405;57.012;40.984;2024-03-02T03:05:15;21.25;;;14.45;;
59390;SDS011;53405;57.012;40.984;2024-03-02T03:07:43;23.75;;;16.08;;
59390;SDS011;53405;57.012;40.984;2024-03-02T03:10:12;22.55;;;14.32;;
59390;SDS011;53405;57.012;40.984;2024-03-02T03:12:41;23.13;;;15.60;;
59390;SDS011;53405;57.012;40.984;2024-03-02T03:17:39;22.75;;;15.38;;
59390;SDS011;53405;57.012;40.984;2024-03-02T03:20:06;28.80;;;16.50;;
59390;SDS011;53405;57.012;40.984;2024-03-02T03:22:37;26.30;;;17.10;;
59390;SDS011;53405;57.012;40.984;2024-03-02T03:25:05;24.17;;;15.75;;
59390;SDS011;53405;57.012;40.984;2024-03-02T03:27:36;23.55;;;15.88;;
59390;SDS011;53405;57.012;40.984;2024-03-02T03:30:03;27.27;;;16.20;;
59390;SDS011;53405;57.012;40.984;2024-03-02T03:32:34;21.65;;;15.15;;
59390;SDS011;53405;57.012;40.984;2024-03-02T03:35:02;25.38;;;16.10;;
59390;SDS011;53405;57.012;40.984;2024-03-02T03:37:30;24.65;;;15.85;;
59390;SDS011;53405;57.012;40.984;2024-03-02T03:40:04;25.48;;;16.02;;
59390;SDS011;53405;57.012;40.984;2024-03-02T03:42:38;23.65;;;16.17;;
59390;SDS011;53405;57.012;40.984;2024-03-02T03:45:07;22.48;;;15.13;;
59390;SDS011;53405;57.012;40.984;2024-03-02T03:47:35;23.85;;;16.27;;
59390;SDS011;53405;57.012;40.984;2024-03-02T03:50:03;24.40;;;15.25;;
59390;SDS011;53405;57.012;40.984;2024-03-02T03:52:34;22.65;;;14.57;;
59390;SDS011;53405;57.012;40.984;2024-03-02T03:55:02;22.25;;;15.02;;
59390;SDS011;53405;57.012;40.984;2024-03-02T03:57:29;20.70;;;14.32;;
59390;SDS011;53405;57.012;40.984;2024-03-02T03:59:57;20.90;;;14.40;;
59390;SDS011;53405;57.012;40.984;2024-03-02T04:02:25;22.80;;;14.95;;
59390;SDS011;53405;57.012;40.984;2024-03-02T04:04:52;23.42;;;15.00;;
59390;SDS011;53405;57.012;40.984;2024-03-02T04:07:20;26.10;;;16.25;;
59390;SDS011;53405;57.012;40.984;2024-03-02T04:09:47;31.27;;;19.45;;
59390;SDS011;53405;57.012;40.984;2024-03-02T04:12:15;23.38;;;18.15;;
59390;SDS011;53405;57.012;40.984;2024-03-02T04:14:43;22.23;;;15.30;;
59390;SDS011;53405;57.012;40.984;2024-03-02T04:17:10;26.02;;;15.65;;
59390;SDS011;53405;57.012;40.984;2024-03-02T04:19:38;21.73;;;14.18;;
59390;SDS011;53405;57.012;40.984;2024-03-02T04:22:05;23.25;;;15.98;;
59390;SDS011;53405;57.012;40.984;2024-03-02T04:24:47;26.23;;;16.80;;
59390;SDS011;53405;57.012;40.984;2024-03-02T04:27:14;24.48;;;15.90;;
59390;SDS011;53405;57.012;40.984;2024-03-02T04:29:42;26.38;;;17.55;;
59390;SDS011;53405;57.012;40.984;2024-03-02T04:32:09;25.35;;;16.85;;
59390;SDS011;53405;57.012;40.984;2024-03-02T04:34:37;24.50;;;16.70;;
59390;SDS011;53405;57.012;40.984;2024-03-02T04:37:04;23.38;;;16.23;;
59390;SDS011;53405;57.012;40.984;2024-03-02T04:39:32;20.77;;;14.90;;
59390;SDS011;53405;57.012;40.984;2024-03-02T04:42:02;24.90;;;15.88;;
59390;SDS011;53405;57.012;40.984;2024-03-02T04:44:30;26.05;;;16.50;;
59390;SDS011;53405;57.012;40.984;2024-03-02T04:46:57;24.27;;;16.15;;
59390;SDS011;53405;57.012;40.984;2024-03-02T04:49:25;22.95;;;15.77;;
59390;SDS011;53405;57.012;40.984;2024-03-02T04:51:53;25.80;;;15.40;;
59390;SDS011;53405;57.012;40.984;2024-03-02T04:54:21;25.13;;;16.50;;
59390;SDS011;53405;57.012;40.984;2024-03-02T04:56:48;23.02;;;15.43;;
59390;SDS011;53405;57.012;40.984;2024-03-02T04:59:19;24.77;;;16.85;;
59390;SDS011;53405;57.012;40.984;2024-03-02T05:01:47;28.02;;;17.17;;
59390;SDS011;53405;57.012;40.984;2024-03-02T05:04:14;25.33;;;15.77;;
59390;SDS011;53405;57.012;40.984;2024-03-02T05:06:42;22.83;;;16.17;;
59390;SDS011;53405;57.012;40.984;2024-03-02T05:09:10;21.55;;;15.52;;
59390;SDS011;53405;57.012;40.984;2024-03-02T05:11:37;23.98;;;15.63;;
59390;SDS011;53405;57.012;40.984;2024-03-02T05:14:05;26.13;;;16.27;;
59390;SDS011;53405;57.012;40.984;2024-03-02T05:16:34;26.33;;;15.57;;
59390;SDS011;53405;57.012;40.984;2024-03-02T05:19:02;26.45;;;16.27;;
59390;SDS011;53405;57.012;40.984;2024-03-02T05:21:30;26.60;;;16.38;;
59390;SDS011;53405;57.012;40.984;2024-03-02T05:23:57;27.13;;;16.45;;
59390;SDS011;53405;57.012;40.984;2024-03-02T05:26:25;28.15;;;17.45;;
59390;SDS011;53405;57.012;40.984;2024-03-02T05:28:52;26.98;;;16.85;;
59390;SDS011;53405;57.012;40.984;2024-03-02T05:31:20;25.67;;;16.52;;
59390;SDS011;53405;57.012;40.984;2024-03-02T05:33:47;27.23;;;15.60;;
59390;SDS011;53405;57.012;40.984;2024-03-02T05:36:18;26.95;;;16.70;;
59390;SDS011;53405;57.012;40.984;2024-03-02T05:38:47;24.50;;;15.75;;
59390;SDS011;53405;57.012;40.984;2024-03-02T05:41:15;26.70;;;16.38;;
59390;SDS011;53405;57.012;40.984;2024-03-02T05:43:42;23.77;;;16.35;;
59390;SDS011;53405;57.012;40.984;2024-03-02T05:46:10;24.33;;;15.80;;
59390;SDS011;53405;57.012;40.984;2024-03-02T05:48:37;31.70;;;19.63;;
59390;SDS011;53405;57.012;40.984;2024-03-02T05:51:05;26.08;;;16.52;;
59390;SDS011;53405;57.012;40.984;2024-03-02T05:53:32;25.92;;;17.00;;
59390;SDS011;53405;57.012;40.984;2024-03-02T05:56:00;24.35;;;15.85;;
59390;SDS011;53405;57.012;40.984;2024-03-02T05:58:31;24.92;;;15.82;;
59390;SDS011;53405;57.012;40.984;2024-03-02T06:01:34;24.40;;;15.55;;
59390;SDS011;53405;57.012;40.984;2024-03-02T06:04:02;26.25;;;15.70;;
59390;SDS011;53405;57.012;40.984;2024-03-02T06:06:30;27.60;;;16.60;;
59390;SDS011;53405;57.012;40.984;2024-03-02T06:09:01;28.33;;;16.85;;
59390;SDS011;53405;57.012;40.984;2024-03-02T06:11:29;29.45;;;17.27;;
59390;SDS011;53405;57.012;40.984;2024-03-02T06:13:57;27.17;;;16.92;;
59390;SDS011;53405;57.012;40.984;2024-03-02T06:16:24;26.35;;;16.80;;
59390;SDS011;53405;57.012;40.984;2024-03-02T06:18:52;28.38;;;17.73;;
59390;SDS011;53405;57.012;40.984;2024-03-02T06:21:21;26.27;;;17.60;;
59390;SDS011;53405;57.012;40.984;2024-03-02T06:23:48;30.92;;;18.38;;
59390;SDS011;53405;57.012;40.984;2024-03-02T06:26:16;28.35;;;18.30;;
59390;SDS011;53405;57.012;40.984;2024-03-02T06:28:44;30.15;;;19.60;;
59390;SDS011;53405;57.012;40.984;2024-03-02T06:31:12;25.75;;;17.23;;
59390;SDS011;53405;57.012;40.984;2024-03-02T06:33:39;22.13;;;15.40;;
59390;SDS011;53405;57.012;40.984;2024-03-02T06:36:08;26.20;;;15.93;;
59390;SDS011;53405;57.012;40.984;2024-03-02T06:38:36;24.85;;;15.35;;
59390;SDS011;53405;57.012;40.984;2024-03-02T06:41:07;26.35;;;17.02;;
59390;SDS011;53405;57.012;40.984;2024-03-02T06:43:34;25.88;;;16.25;;
59390;SDS011;53405;57.012;40.984;2024-03-02T06:46:02;24.83;;;16.85;;
59390;SDS011;53405;57.012;40.984;2024-03-02T06:48:30;22.77;;;14.95;;
59390;SDS011;53405;57.012;40.984;2024-03-02T06:50:57;25.58;;;16.30;;
59390;SDS011;53405;57.012;40.984;2024-03-02T06:53:25;23.45;;;15.70;;
59390;SDS011;53405;57.012;40.984;2024-03-02T06:55:54;24.15;;;15.15;;
59390;SDS011;53405;57.012;40.984;2024-03-02T06:58:22;20.48;;;14.02;;
59390;SDS011;53405;57.012;40.984;2024-03-02T07:00:49;23.77;;;14.25;;
59390;SDS011;53405;57.012;40.984;2024-03-02T07:03:16;23.73;;;14.13;;
59390;SDS011;53405;57.012;40.984;2024-03-02T07:05:44;21.98;;;14.18;;
59390;SDS011;53405;57.012;40.984;2024-03-02T07:08:12;24.95;;;14.70;;
59390;SDS011;53405;57.012;40.984;2024-03-02T07:10:40;17.40;;;12.13;;
59390;SDS011;53405;57.012;40.984;2024-03-02T07:13:07;21.33;;;13.80;;
59390;SDS011;53405;57.012;40.984;2024-03-02T07:15:35;16.75;;;11.40;;
59390;SDS011;53405;57.012;40.984;2024-03-02T07:18:21;17.55;;;11.32;;
59390;SDS011;53405;57.012;40.984;2024-03-02T07:20:48;14.70;;;10.25;;
59390;SDS011;53405;57.012;40.984;2024-03-02T07:23:16;17.55;;;12.07;;
59390;SDS011;53405;57.012;40.984;2024-03-02T07:25:44;17.75;;;11.02;;
59390;SDS011;53405;57.012;40.984;2024-03-02T07:28:15;18.23;;;11.93;;
59390;SDS011;53405;57.012;40.984;2024-03-02T07:30:42;20.52;;;12.95;;
59390;SDS011;53405;57.012;40.984;2024-03-02T07:33:10;20.65;;;12.60;;
59390;SDS011;53405;57.012;40.984;2024-03-02T07:35:39;22.02;;;12.82;;
59390;SDS011;53405;57.012;40.984;2024-03-02T07:38:06;18.52;;;12.82;;
59390;SDS011;53405;57.012;40.984;2024-03-02T07:40:34;20.85;;;13.75;;
59390;SDS011;53405;57.012;40.984;2024-03-02T07:43:01;16.90;;;12.25;;
59390;SDS011;53405;57.012;40.984;2024-03-02T07:45:29;19.70;;;12.65;;
59390;SDS011;53405;57.012;40.984;2024-03-02T07:47:56;20.63;;;14.57;;
59390;SDS011;53405;57.012;40.984;2024-03-02T07:50:25;18.20;;;12.68;;
59390;SDS011;53405;57.012;40.984;2024-03-02T07:52:52;19.70;;;13.63;;
59390;SDS011;53405;57.012;40.984;2024-03-02T07:55:20;20.20;;;12.30;;
59390;SDS011;53405;57.012;40.984;2024-03-02T07:57:48;18.92;;;12.57;;
59390;SDS011;53405;57.012;40.984;2024-03-02T08:00:16;18.98;;;12.55;;
59390;SDS011;53405;57.012;40.984;2024-03-02T08:02:44;23.27;;;15.45;;
59390;SDS011;53405;57.012;40.984;2024-03-02T08:05:12;20.63;;;12.98;;
59390;SDS011;53405;57.012;40.984;2024-03-02T08:07:40;18.88;;;12.93;;
59390;SDS011;53405;57.012;40.984;2024-03-02T08:10:08;18.20;;;12.03;;
59390;SDS011;53405;57.012;40.984;2024-03-02T08:12:36;17.77;;;11.52;;
59390;SDS011;53405;57.012;40.984;2024-03-02T08:15:03;20.75;;;11.98;;
59390;SDS011;53405;57.012;40.984;2024-03-02T08:17:31;20.40;;;12.70;;
59390;SDS011;53405;57.012;40.984;2024-03-02T08:20:03;18.00;;;11.90;;
59390;SDS011;53405;57.012;40.984;2024-03-02T08:22:32;20.00;;;13.30;;
59390;SDS011;53405;57.012;40.984;2024-03-02T08:24:59;15.88;;;11.55;;
59390;SDS011;53405;57.012;40.984;2024-03-02T08:27:27;21.75;;;13.80;;
59390;SDS011;53405;57.012;40.984;2024-03-02T08:29:55;13.18;;;9.15;;
59390;SDS011;53405;57.012;40.984;2024-03-02T08:32:22;15.00;;;9.27;;
59390;SDS011;53405;57.012;40.984;2024-03-02T08:34:49;17.35;;;10.40;;
59390;SDS011;53405;57.012;40.984;2024-03-02T08:37:17;12.07;;;8.73;;
59390;SDS011;53405;57.012;40.984;2024-03-02T08:39:45;12.32;;;8.18;;
59390;SDS011;53405;57.012;40.984;2024-03-02T08:42:12;13.65;;;8.13;;
59390;SDS011;53405;57.012;40.984;2024-03-02T08:44:40;13.63;;;7.95;;
59390;SDS011;53405;57.012;40.984;2024-03-02T08:47:07;12.40;;;8.20;;
59390;SDS011;53405;57.012;40.984;2024-03-02T08:49:35;13.95;;;8.25;;
59390;SDS011;53405;57.012;40.984;2024-03-02T08:52:02;13.10;;;8.48;;
59390;SDS011;53405;57.012;40.984;2024-03-02T08:54:30;12.23;;;7.10;;
59390;SDS011;53405;57.012;40.984;2024-03-02T08:56:59;11.95;;;7.28;;
59390;SDS011;53405;57.012;40.984;2024-03-02T08:59:27;11.13;;;7.80;;
59390;SDS011;53405;57.012;40.984;2024-03-02T09:01:55;20.02;;;12.68;;
59390;SDS011;53405;57.012;40.984;2024-03-02T09:04:22;12.90;;;8.30;;
59390;SDS011;53405;57.012;40.984;2024-03-02T09:06:53;15.57;;;9.73;;
59390;SDS011;53405;57.012;40.984;2024-03-02T09:09:21;15.80;;;9.52;;
59390;SDS011;53405;57.012;40.984;2024-03-02T09:11:48;15.75;;;10.05;;
59390;SDS011;53405;57.012;40.984;2024-03-02T09:14:16;16.27;;;10.93;;
59390;SDS011;53405;57.012;40.984;2024-03-02T09:16:43;14.73;;;8.70;;
59390;SDS011;53405;57.012;40.984;2024-03-02T09:19:11;13.65;;;7.75;;
59390;SDS011;53405;57.012;40.984;2024-03-02T09:21:39;16.73;;;9.00;;
59390;SDS011;53405;57.012;40.984;2024-03-02T09:24:06;14.77;;;9.57;;
59390;SDS011;53405;57.012;40.984;2024-03-02T09:26:33;13.15;;;9.15;;
59390;SDS011;53405;57.012;40.984;2024-03-02T09:29:01;15.57;;;10.23;;
59390;SDS011;53405;57.012;40.984;2024-03-02T09:31:28;12.80;;;8.70;;
59390;SDS011;53405;57.012;40.984;2024-03-02T09:33:56;14.10;;;8.95;;
59390;SDS011;53405;57.012;40.984;2024-03-02T09:36:24;13.05;;;7.65;;
59390;SDS011;53405;57.012;40.984;2024-03-02T09:38:51;12.73;;;8.43;;
59390;SDS011;53405;57.012;40.984;2024-03-02T09:41:19;14.25;;;9.55;;
59390;SDS011;53405;57.012;40.984;2024-03-02T09:43:47;16.65;;;9.57;;
59390;SDS011;53405;57.012;40.984;2024-03-02T09:46:15;13.77;;;9.27;;
59390;SDS011;53405;57.012;40.984;2024-03-02T09:48:46;18.67;;;10.63;;
59390;SDS011;53405;57.012;40.984;2024-03-02T09:51:14;15.27;;;8.98;;
59390;SDS011;53405;57.012;40.984;2024-03-02T09:53:47;15.77;;;10.23;;
59390;SDS011;53405;57.012;40.984;2024-03-02T09:56:15;14.40;;;9.40;;
59390;SDS011;53405;57.012;40.984;2024-03-02T09:58:43;16.38;;;9.20;;
59390;SDS011;53405;57.012;40.984;2024-03-02T10:01:11;15.25;;;9.73;;
59390;SDS011;53405;57.012;40.984;2024-03-02T10:03:39;14.70;;;9.77;;
59390;SDS011;53405;57.012;40.984;2024-03-02T10:06:21;13.70;;;8.45;;
59390;SDS011;53405;57.012;40.984;2024-03-02T10:08:50;13.82;;;8.70;;
59390;SDS011;53405;57.012;40.984;2024-03-02T10:14:07;16.88;;;10.18;;
59390;SDS011;53405;57.012;40.984;2024-03-02T10:16:40;15.32;;;9.48;;
59390;SDS011;53405;57.012;40.984;2024-03-02T10:19:21;14.73;;;9.55;;
59390;SDS011;53405;57.012;40.984;2024-03-02T10:21:51;16.00;;;10.00;;
59390;SDS011;53405;57.012;40.984;2024-03-02T10:24:22;15.00;;;9.23;;
59390;SDS011;53405;57.012;40.984;2024-03-02T10:26:50;15.77;;;9.35;;
59390;SDS011;53405;57.012;40.984;2024-03-02T10:31:47;18.13;;;9.30;;
59390;SDS011;53405;57.012;40.984;2024-03-02T10:34:15;14.77;;;8.82;;
59390;SDS011;53405;57.012;40.984;2024-03-02T10:36:45;13.77;;;9.27;;
59390;SDS011;53405;57.012;40.984;2024-03-02T10:39:13;16.48;;;8.75;;
59390;SDS011;53405;57.012;40.984;2024-03-02T10:41:42;18.63;;;10.55;;
59390;SDS011;53405;57.012;40.984;2024-03-02T10:44:13;13.75;;;9.00;;
59390;SDS011;53405;57.012;40.984;2024-03-02T10:46:41;14.02;;;8.50;;
59390;SDS011;53405;57.012;40.984;2024-03-02T10:49:12;15.18;;;8.98;;
59390;SDS011;53405;57.012;40.984;2024-03-02T10:51:40;17.77;;;10.90;;
59390;SDS011;53405;57.012;40.984;2024-03-02T10:54:07;17.23;;;10.68;;
59390;SDS011;53405;57.012;40.984;2024-03-02T10:56:38;14.27;;;9.27;;
59390;SDS011;53405;57.012;40.984;2024-03-02T10:59:17;16.45;;;8.48;;
59390;SDS011;53405;57.012;40.984;2024-03-02T11:01:55;14.82;;;9.40;;
59390;SDS011;53405;57.012;40.984;2024-03-02T11:04:31;14.90;;;8.82;;
59390;SDS011;53405;57.012;40.984;2024-03-02T11:07:04;14.80;;;9.23;;
59390;SDS011;53405;57.012;40.984;2024-03-02T11:09:41;14.90;;;8.05;;
59390;SDS011;53405;57.012;40.984;2024-03-02T11:12:13;13.68;;;8.15;;
59390;SDS011;53405;57.012;40.984;2024-03-02T11:14:46;13.35;;;8.45;;
59390;SDS011;53405;57.012;40.984;2024-03-02T11:17:14;14.43;;;9.18;;
59390;SDS011;53405;57.012;40.984;2024-03-02T11:19:43;15.50;;;9.13;;
59390;SDS011;53405;57.012;40.984;2024-03-02T11:22:14;12.98;;;8.30;;
59390;SDS011;53405;57.012;40.984;2024-03-02T11:24:49;15.57;;;8.68;;
59390;SDS011;53405;57.012;40.984;2024-03-02T11:30:56;14.23;;;8.45;;
59390;SDS011;53405;57.012;40.984;2024-03-02T11:33:06;14.10;;;7.78;;
59390;SDS011;53405;57.012;40.984;2024-03-02T11:35:36;15.70;;;7.90;;
59390;SDS011;53405;57.012;40.984;2024-03-02T11:38:04;14.18;;;8.60;;
59390;SDS011;53405;57.012;40.984;2024-03-02T11:40:33;14.48;;;8.10;;
59390;SDS011;53405;57.012;40.984;2024-03-02T11:43:01;14.45;;;7.55;;
59390;SDS011;53405;57.012;40.984;2024-03-02T11:45:29;20.40;;;10.73;;
59390;SDS011;53405;57.012;40.984;2024-03-02T11:47:58;36.05;;;21.88;;
59390;SDS011;53405;57.012;40.984;2024-03-02T11:50:30;35.10;;;19.58;;
59390;SDS011;53405;57.012;40.984;2024-03-02T11:53:01;13.27;;;8.25;;
59390;SDS011;53405;57.012;40.984;2024-03-02T11:55:29;12.07;;;7.70;;
59390;SDS011;53405;57.012;40.984;2024-03-02T11:57:58;13.88;;;7.78;;
59390;SDS011;53405;57.012;40.984;2024-03-02T12:00:28;15.38;;;9.10;;
59390;SDS011;53405;57.012;40.984;2024-03-02T12:03:03;15.85;;;9.73;;
59390;SDS011;53405;57.012;40.984;2024-03-02T12:05:32;17.55;;;10.43;;
59390;SDS011;53405;57.012;40.984;2024-03-02T12:08:01;17.42;;;10.75;;
59390;SDS011;53405;57.012;40.984;2024-03-02T12:10:30;19.38;;;12.10;;
59390;SDS011;53405;57.012;40.984;2024-03-02T12:12:58;16.25;;;10.10;;
59390;SDS011;53405;57.012;40.984;2024-03-02T12:15:30;19.10;;;11.98;;
59390;SDS011;53405;57.012;40.984;2024-03-02T12:18:01;21.08;;;12.32;;
59390;SDS011;53405;57.012;40.984;2024-03-02T12:20:29;15.13;;;9.63;;
59390;SDS011;53405;57.012;40.984;2024-03-02T12:22:58;17.63;;;10.60;;
59390;SDS011;53405;57.012;40.984;2024-03-02T12:25:26;17.70;;;10.82;;
59390;SDS011;53405;57.012;40.984;2024-03-02T12:27:56;17.38;;;10.35;;
59390;SDS011;53405;57.012;40.984;2024-03-02T12:30:26;13.20;;;9.05;;
59390;SDS011;53405;57.012;40.984;2024-03-02T12:32:58;14.13;;;8.52;;
59390;SDS011;53405;57.012;40.984;2024-03-02T12:35:25;18.63;;;9.75;;
59390;SDS011;53405;57.012;40.984;2024-03-02T12:37:53;16.02;;;9.82;;
59390;SDS011;53405;57.012;40.984;2024-03-02T12:40:21;15.57;;;9.73;;
59390;SDS011;53405;57.012;40.984;2024-03-02T12:42:50;14.18;;;8.93;;
59390;SDS011;53405;57.012;40.984;2024-03-02T12:45:19;13.68;;;8.45;;
59390;SDS011;53405;57.012;40.984;2024-03-02T12:47:53;17.13;;;9.88;;
59390;SDS011;53405;57.012;40.984;2024-03-02T12:50:21;13.57;;;8.27;;
59390;SDS011;53405;57.012;40.984;2024-03-02T12:52:52;15.85;;;8.93;;
59390;SDS011;53405;57.012;40.984;2024-03-02T12:55:21;15.85;;;9.50;;
59390;SDS011;53405;57.012;40.984;2024-03-02T12:57:52;16.15;;;9.32;;
59390;SDS011;53405;57.012;40.984;2024-03-02T13:00:21;14.63;;;9.68;;
59390;SDS011;53405;57.012;40.984;2024-03-02T13:02:50;15.85;;;10.18;;
59390;SDS011;53405;57.012;40.984;2024-03-02T13:05:19;16.17;;;9.02;;
59390;SDS011;53405;57.012;40.984;2024-03-02T13:07:47;14.00;;;8.15;;
59390;SDS011;53405;57.012;40.984;2024-03-02T13:10:16;18.73;;;10.60;;
59390;SDS011;53405;57.012;40.984;2024-03-02T13:12:45;16.63;;;10.25;;
59390;SDS011;53405;57.012;40.984;2024-03-02T13:15:13;16.00;;;9.82;;
59390;SDS011;53405;57.012;40.984;2024-03-02T13:17:44;15.55;;;10.48;;
59390;SDS011;53405;57.012;40.984;2024-03-02T13:20:15;16.02;;;9.70;;
59390;SDS011;53405;57.012;40.984;2024-03-02T13:25:14;17.20;;;9.88;;
59390;SDS011;53405;57.012;40.984;2024-03-02T13:27:42;14.75;;;8.65;;
59390;SDS011;53405;57.012;40.984;2024-03-02T13:30:10;16.33;;;9.98;;
59390;SDS011;53405;57.012;40.984;2024-03-02T13:32:38;17.17;;;10.75;;
59390;SDS011;53405;57.012;40.984;2024-03-02T13:35:06;17.23;;;11.02;;
59390;SDS011;53405;57.012;40.984;2024-03-02T13:37:34;17.75;;;10.05;;
59390;SDS011;53405;57.012;40.984;2024-03-02T13:40:01;16.58;;;10.07;;
59390;SDS011;53405;57.012;40.984;2024-03-02T13:42:31;23.10;;;10.75;;
59390;SDS011;53405;57.012;40.984;2024-03-02T13:44:59;17.05;;;9.52;;
59390;SDS011;53405;57.012;40.984;2024-03-02T13:47:26;15.75;;;8.32;;
59390;SDS011;53405;57.012;40.984;2024-03-02T13:49:54;19.38;;;9.73;;
59390;SDS011;53405;57.012;40.984;2024-03-02T13:52:22;15.43;;;9.00;;
59390;SDS011;53405;57.012;40.984;2024-03-02T13:54:49;15.35;;;8.40;;
59390;SDS011;53405;57.012;40.984;2024-03-02T13:57:19;11.13;;;6.68;;
59390;SDS011;53405;57.012;40.984;2024-03-02T13:59:50;10.48;;;6.50;;
59390;SDS011;53405;57.012;40.984;2024-03-02T14:02:19;11.82;;;6.78;;
59390;SDS011;53405;57.012;40.984;2024-03-02T14:04:47;12.15;;;6.18;;
59390;SDS011;53405;57.012;40.984;2024-03-02T14:07:17;9.93;;;5.88;;
59390;SDS011;53405;57.012;40.984;2024-03-02T14:09:44;12.45;;;8.07;;
59390;SDS011;53405;57.012;40.984;2024-03-02T14:12:12;11.73;;;7.40;;
59390;SDS011;53405;57.012;40.984;2024-03-02T14:14:41;15.13;;;8.00;;
59390;SDS011;53405;57.012;40.984;2024-03-02T14:17:09;11.32;;;7.50;;
59390;SDS011;53405;57.012;40.984;2024-03-02T14:19:41;11.88;;;6.75;;
59390;SDS011;53405;57.012;40.984;2024-03-02T14:22:09;12.98;;;8.27;;
59390;SDS011;53405;57.012;40.984;2024-03-02T14:24:37;11.38;;;7.53;;
59390;SDS011;53405;57.012;40.984;2024-03-02T14:27:04;12.07;;;7.30;;
59390;SDS011;53405;57.012;40.984;2024-03-02T14:29:51;13.00;;;7.88;;
59390;SDS011;53405;57.012;40.984;2024-03-02T14:32:18;14.52;;;9.15;;
59390;SDS011;53405;57.012;40.984;2024-03-02T14:34:47;11.75;;;6.68;;
59390;SDS011;53405;57.012;40.984;2024-03-02T14:37:16;12.32;;;7.57;;
59390;SDS011;53405;57.012;40.984;2024-03-02T14:39:43;11.77;;;7.05;;
59390;SDS011;53405;57.012;40.984;2024-03-02T14:42:11;12.63;;;6.85;;
59390;SDS011;53405;57.012;40.984;2024-03-02T14:44:39;10.93;;;7.60;;
59390;SDS011;53405;57.012;40.984;2024-03-02T14:47:06;12.77;;;7.28;;
59390;SDS011;53405;57.012;40.984;2024-03-02T14:49:34;13.52;;;7.50;;